Time;durP1;ratioP1;P1;durP2;ratioP2;P2;SDS_P1;SDS_P2;PMS_P1;PMS_P2;Temp;Humidity;BMP_temperature;BMP_pressure;BME280_temperature;BME280_humidity;BME280_pressure;Samples;Min_cycle;Max_cycle;Signal;HPM_P1;HPM_P2
2022/04/08 00:00:30;;;;;;;;;;;;;;;;;;5073922;28;20312;-86
2022/04/08 00:02:55;;;;;;;;;;;;;;;;;;5085889;28;19987;-86
2022/04/08 00:05:21;;;;;;;;;;;;;;;;;;5090473;28;20015;-86
2022/04/08 00:07:46;;;;;;;;;;;;;;;;;;5073732;28;19913;-85
2022/04/08 00:10:13;;;;;;;;;;;;;;;;;;5073880;28;19916;-85
2022/04/08 00:12:38;;;;;;;;;;;;;;;;;;5083197;28;19909;-85
2022/04/08 00:15:04;;;;;;;;;;;;;;;;;;5091591;28;19913;-86
2022/04/08 00:17:29;;;;;;;;;;;;;;;;;;5081331;28;19916;-85
2022/04/08 00:19:54;;;;;;;;;;;;;;;;;;5071951;28;19912;-85
2022/04/08 00:22:21;;;;;;;;;;;;;;;;;;5067000;28;19909;-86
2022/04/08 00:24:46;;;;;;;;;;;;;;;;;;5086681;28;19915;-86
2022/04/08 00:27:11;;;;;;;;;;;;;;;;;;5092345;28;19908;-85
2022/04/08 00:29:36;;;;;;;;;;;;;;;;;;5073275;28;19916;-85
2022/04/08 00:32:01;;;;;;;;;;;;;;;;;;5096783;28;19909;-85
2022/04/08 00:34:27;;;;;;;;;;;;;;;;;;5072909;28;19919;-85
2022/04/08 00:36:53;;;;;;;;;;;;;;;;;;5089021;28;20376;-85
2022/04/08 00:39:18;;;;;;;;;;;;;;;;;;5089113;28;20366;-86
2022/04/08 00:41:43;;;;;;;;;;;;;;;;;;5088851;28;20379;-85
2022/04/08 00:44:10;;;;;;;;;;;;;;;;;;5107696;28;19960;-86
2022/04/08 00:46:37;;;;;;;;;;;;;;;;;;5075059;28;19962;-86
2022/04/08 00:49:03;;;;;;;;;;;;;;;;;;5074919;28;19912;-86
2022/04/08 00:51:28;;;;;;;;;;;;;;;;;;5074585;28;19908;-86
2022/04/08 00:53:53;;;;;;;;;;;;;;;;;;5074720;28;19909;-86
2022/04/08 00:56:18;;;;;;;;;;;;;;;;;;5074944;28;19912;-86
2022/04/08 00:58:43;;;;;;;;;;;;;;;;;;5074238;28;19919;-86
2022/04/08 01:01:08;;;;;;;;;;;;;;;;;;5074760;28;20256;-86
2022/04/08 01:03:33;;;;;;;;;;;;;;;;;;5074239;28;20382;-86
2022/04/08 01:05:58;;;;;;;;;;;;;;;;;;5059857;28;19942;-85
2022/04/08 01:08:23;;;;;;;;;;;;;;;;;;5072784;28;19912;-85
2022/04/08 01:10:49;;;;;;;;;;;;;;;;;;5054653;28;20021;-86
2022/04/08 01:13:14;;;;;;;;;;;;;;;;;;5054149;28;20019;-85
2022/04/08 01:15:39;;;;;;;;;;;;;;;;;;5072464;28;19915;-86
2022/04/08 01:18:08;;;;;;;;;;;;;;;;;;5088421;28;19916;-86
2022/04/08 01:20:33;;;;;;;;;;;;;;;;;;5098302;28;19961;-85
2022/04/08 01:22:59;;;;;;;;;;;;;;;;;;5074016;28;20006;-85
2022/04/08 01:25:24;;;;;;;;;;;;;;;;;;5074521;28;20390;-86
2022/04/08 01:27:49;;;;;;;;;;;;;;;;;;5073899;28;20283;-86
2022/04/08 01:30:16;;;;;;;;;;;;;;;;;;5073089;28;19914;-85
2022/04/08 01:32:41;;;;;;;;;;;;;;;;;;5074538;28;20271;-85
2022/04/08 01:35:06;;;;;;;;;;;;;;;;;;5091479;28;20360;-86
2022/04/08 01:37:31;;;;;;;;;;;;;;;;;;5074385;28;20375;-85
2022/04/08 01:39:56;;;;;;;;;;;;;;;;;;5073807;28;20134;-85
2022/04/08 01:42:24;;;;;;;;;;;;;;;;;;5060494;28;19923;-86
2022/04/08 01:44:50;;;;;;;;;;;;;;;;;;5058701;28;19913;-86
2022/04/08 01:47:15;;;;;;;;;;;;;;;;;;5070433;28;19917;-86
2022/04/08 01:49:40;;;;;;;;;;;;;;;;;;5051542;28;19916;-86
2022/04/08 01:52:07;;;;;;;;;;;;;;;;;;5091413;28;20282;-86
2022/04/08 01:54:32;;;;;;;;;;;;;;;;;;5091968;28;19969;-86
2022/04/08 01:56:57;;;;;;;;;;;;;;;;;;5072784;28;19913;-86
2022/04/08 01:59:22;;;;;;;;;;;;;;;;;;5073779;28;19944;-86
2022/04/08 02:01:47;;;;;;;;;;;;;;;;;;5073918;28;19908;-85
2022/04/08 02:04:13;;;;;;;;;;;;;;;;;;5073900;28;19908;-86
2022/04/08 02:06:40;;;;;;;;;;;;;;;;;;5073941;28;19912;-86
2022/04/08 02:09:07;;;;;;;;;;;;;;;;;;5091962;28;19986;-86
2022/04/08 02:11:32;;;;;;;;;;;;;;;;;;5063840;28;19913;-86
2022/04/08 02:13:57;;;;;;;;;;;;;;;;;;5053285;28;19912;-86
2022/04/08 02:16:22;;;;;;;;;;;;;;;;;;5053587;28;19915;-86
2022/04/08 02:18:48;;;;;;;;;;;;;;;;;;5071466;28;19908;-86
2022/04/08 02:21:19;;;;;;;;;;;;;;;;;;5070904;28;19920;-88
2022/04/08 02:23:44;;;;;;;;;;;;;;;;;;5073636;28;20029;-86
2022/04/08 02:26:12;;;;;;;;;;;;;;;;;;5091094;28;20006;-86
2022/04/08 02:28:37;;;;;;;;;;;;;;;;;;5091318;28;20359;-86
2022/04/08 02:31:03;;;;;;;;;;;;;;;;;;5073552;28;20011;-85
2022/04/08 02:33:29;;;;;;;;;;;;;;;;;;5073532;28;19912;-86
2022/04/08 02:35:54;;;;;;;;;;;;;;;;;;5074077;28;19961;-86
2022/04/08 02:38:19;;;;;;;;;;;;;;;;;;5091560;28;19909;-86
2022/04/08 02:40:44;;;;;;;;;;;;;;;;;;5072857;28;20398;-86
2022/04/08 02:43:09;;;;;;;;;;;;;;;;;;5077017;28;19992;-86
2022/04/08 02:45:34;;;;;;;;;;;;;;;;;;5077100;28;19961;-85
2022/04/08 02:47:59;;;;;;;;;;;;;;;;;;5077230;28;20002;-86
2022/04/08 02:50:25;;;;;;;;;;;;;;;;;;5061351;28;19916;-86
2022/04/08 02:52:50;;;;;;;;;;;;;;;;;;5090308;28;20007;-85
2022/04/08 02:55:15;;;;;;;;;;;;;;;;;;5090045;28;20352;-86
2022/04/08 02:57:47;;;;;;;;;;;;;;;;;;5090351;28;20019;-86
2022/04/08 03:00:12;;;;;;;;;;;;;;;;;;5073101;28;19920;-85
2022/04/08 03:02:38;;;;;;;;;;;;;;;;;;5056666;28;19917;-86
2022/04/08 03:05:06;;;;;;;;;;;;;;;;;;5090075;28;19908;-86
2022/04/08 03:07:31;;;;;;;;;;;;;;;;;;5090534;28;19908;-87
2022/04/08 03:09:56;;;;;;;;;;;;;;;;;;5091053;28;19943;-86
2022/04/08 03:12:22;;;;;;;;;;;;;;;;;;5106721;28;20279;-86
2022/04/08 03:14:47;;;;;;;;;;;;;;;;;;5094585;28;19909;-86
2022/04/08 03:17:12;;;;;;;;;;;;;;;;;;5076673;28;19915;-86
2022/04/08 03:19:37;;;;;;;;;;;;;;;;;;5076578;28;19914;-86
2022/04/08 03:22:02;;;;;;;;;;;;;;;;;;5094875;28;19914;-85
2022/04/08 03:24:28;;;;;;;;;;;;;;;;;;5076197;28;19908;-86
2022/04/08 03:26:54;;;;;;;;;;;;;;;;;;5063907;28;20002;-85
2022/04/08 03:29:19;;;;;;;;;;;;;;;;;;5074728;28;19920;-86
2022/04/08 03:31:44;;;;;;;;;;;;;;;;;;5073433;28;19926;-85
2022/04/08 03:34:09;;;;;;;;;;;;;;;;;;5083421;28;19961;-86
2022/04/08 03:36:34;;;;;;;;;;;;;;;;;;5076984;28;19912;-85
2022/04/08 03:38:59;;;;;;;;;;;;;;;;;;5094075;28;19927;-85
2022/04/08 03:41:24;;;;;;;;;;;;;;;;;;5093427;28;19913;-85
2022/04/08 03:43:49;;;;;;;;;;;;;;;;;;5075436;28;19916;-85
2022/04/08 03:46:16;;;;;;;;;;;;;;;;;;5075936;28;20298;-85
2022/04/08 03:48:43;;;;;;;;;;;;;;;;;;5076099;28;19912;-86
2022/04/08 03:51:08;;;;;;;;;;;;;;;;;;5076069;28;19923;-86
2022/04/08 03:53:33;;;;;;;;;;;;;;;;;;5093224;28;20360;-85
2022/04/08 03:56:01;;;;;;;;;;;;;;;;;;5068797;28;19916;-85
2022/04/08 03:58:26;;;;;;;;;;;;;;;;;;5110315;27;20428;-86
2022/04/08 04:00:51;;;;;;;;;;;;;;;;;;5093178;28;19999;-86
2022/04/08 04:03:19;;;;;;;;;;;;;;;;;;5092196;28;19999;-85
2022/04/08 04:05:44;;;;;;;;;;;;;;;;;;5092202;28;19912;-86
2022/04/08 04:08:09;;;;;;;;;;;;;;;;;;5083084;28;20015;-85
2022/04/08 04:10:34;;;;;;;;;;;;;;;;;;5075244;28;20279;-86
2022/04/08 04:13:00;;;;;;;;;;;;;;;;;;5075384;28;19912;-86
2022/04/08 04:15:25;;;;;;;;;;;;;;;;;;5093820;28;19908;-85
2022/04/08 04:17:50;;;;;;;;;;;;;;;;;;5075207;28;19908;-86
2022/04/08 04:20:15;;;;;;;;;;;;;;;;;;5093372;28;19908;-86
2022/04/08 04:22:40;;;;;;;;;;;;;;;;;;5093416;28;19913;-86
2022/04/08 04:25:05;;;;;;;;;;;;;;;;;;5071581;28;19969;-86
2022/04/08 04:27:30;;;;;;;;;;;;;;;;;;5089201;28;19935;-86
2022/04/08 04:29:55;;;;;;;;;;;;;;;;;;5088145;28;20334;-85
2022/04/08 04:32:20;;;;;;;;;;;;;;;;;;5072062;28;19908;-85
2022/04/08 04:34:45;;;;;;;;;;;;;;;;;;5072342;28;19904;-86
2022/04/08 04:37:11;;;;;;;;;;;;;;;;;;5074588;28;19908;-85
2022/04/08 04:39:36;;;;;;;;;;;;;;;;;;5073330;28;19909;-86
2022/04/08 04:42:01;;;;;;;;;;;;;;;;;;5073246;28;19912;-85
2022/04/08 04:44:27;;;;;;;;;;;;;;;;;;5072793;28;19923;-85
2022/04/08 04:46:52;;;;;;;;;;;;;;;;;;5056367;28;19962;-86
2022/04/08 04:49:17;;;;;;;;;;;;;;;;;;5074644;28;19917;-86
2022/04/08 04:51:42;;;;;;;;;;;;;;;;;;5056441;28;20360;-86
2022/04/08 04:54:07;;;;;;;;;;;;;;;;;;5072646;28;19908;-86
2022/04/08 04:56:33;;;;;;;;;;;;;;;;;;5073108;28;19909;-86
2022/04/08 04:58:58;;;;;;;;;;;;;;;;;;5072539;28;20279;-85
2022/04/08 05:01:23;;;;;;;;;;;;;;;;;;5089547;28;19912;-86
2022/04/08 05:03:48;;;;;;;;;;;;;;;;;;5089447;28;19968;-86
2022/04/08 05:06:13;;;;;;;;;;;;;;;;;;5099654;28;19912;-85
2022/04/08 05:08:38;;;;;;;;;;;;;;;;;;5074917;28;20023;-86
2022/04/08 05:11:04;;;;;;;;;;;;;;;;;;5074850;28;20309;-86
2022/04/08 05:13:29;;;;;;;;;;;;;;;;;;5074093;28;20002;-86
2022/04/08 05:15:54;;;;;;;;;;;;;;;;;;5073318;28;20011;-85
2022/04/08 05:18:19;;;;;;;;;;;;;;;;;;5074353;28;19977;-86
2022/04/08 05:20:44;;;;;;;;;;;;;;;;;;5092663;28;20477;-86
2022/04/08 05:23:09;;;;;;;;;;;;;;;;;;5069906;28;19913;-86
2022/04/08 05:25:34;;;;;;;;;;;;;;;;;;5059643;28;19947;-86
2022/04/08 05:27:59;;;;;;;;;;;;;;;;;;5074594;28;19925;-86
2022/04/08 05:30:25;;;;;;;;;;;;;;;;;;5074521;28;19955;-86
2022/04/08 05:32:50;;;;;;;;;;;;;;;;;;5092306;28;20043;-86
2022/04/08 05:35:15;;;;;;;;;;;;;;;;;;5074097;28;19912;-86
2022/04/08 05:37:42;;;;;;;;;;;;;;;;;;5072435;28;19920;-86
2022/04/08 05:40:07;;;;;;;;;;;;;;;;;;5070566;28;19908;-86
2022/04/08 05:42:32;;;;;;;;;;;;;;;;;;5070521;28;20067;-86
2022/04/08 05:44:57;;;;;;;;;;;;;;;;;;5070873;28;20061;-86
2022/04/08 05:47:22;;;;;;;;;;;;;;;;;;5073868;28;20010;-86
2022/04/08 05:49:47;;;;;;;;;;;;;;;;;;5074021;28;20279;-86
2022/04/08 05:52:12;;;;;;;;;;;;;;;;;;5091320;28;19915;-86
2022/04/08 05:54:38;;;;;;;;;;;;;;;;;;5073506;28;19991;-86
2022/04/08 05:57:03;;;;;;;;;;;;;;;;;;5092404;28;20421;-86
2022/04/08 05:59:29;;;;;;;;;;;;;;;;;;5074251;28;19917;-86
2022/04/08 06:01:54;;;;;;;;;;;;;;;;;;5074182;28;19974;-86
2022/04/08 06:04:20;;;;;;;;;;;;;;;;;;5088773;28;20431;-85
2022/04/08 06:06:45;;;;;;;;;;;;;;;;;;5089270;28;19908;-86
2022/04/08 06:09:10;;;;;;;;;;;;;;;;;;5090740;28;19923;-86
2022/04/08 06:11:35;;;;;;;;;;;;;;;;;;5073800;28;19919;-86
2022/04/08 06:14:00;;;;;;;;;;;;;;;;;;5058468;28;19924;-86
2022/04/08 06:16:25;;;;;;;;;;;;;;;;;;5054746;28;19915;-86
2022/04/08 06:18:51;;;;;;;;;;;;;;;;;;5058277;28;19927;-86
2022/04/08 06:21:16;;;;;;;;;;;;;;;;;;5076164;28;20278;-86
2022/04/08 06:23:41;;;;;;;;;;;;;;;;;;5057852;28;19915;-86
2022/04/08 06:26:06;;;;;;;;;;;;;;;;;;5059942;28;20359;-86
2022/04/08 06:28:34;;;;;;;;;;;;;;;;;;5081391;28;19923;-86
2022/04/08 06:30:59;;;;;;;;;;;;;;;;;;5077860;28;19908;-86
2022/04/08 06:33:24;;;;;;;;;;;;;;;;;;5077501;28;19912;-87
2022/04/08 06:35:49;;;;;;;;;;;;;;;;;;5078022;28;19916;-86
2022/04/08 06:38:15;;;;;;;;;;;;;;;;;;5077515;28;19912;-86
2022/04/08 06:40:40;;;;;;;;;;;;;;;;;;5077407;28;19912;-86
2022/04/08 06:43:05;;;;;;;;;;;;;;;;;;5077083;28;20432;-86
2022/04/08 06:45:31;;;;;;;;;;;;;;;;;;5077654;28;19908;-86
2022/04/08 06:47:56;;;;;;;;;;;;;;;;;;5070402;28;19920;-86
2022/04/08 06:50:21;;;;;;;;;;;;;;;;;;5056705;28;19971;-86
2022/04/08 06:52:46;;;;;;;;;;;;;;;;;;5071517;28;19912;-86
2022/04/08 06:55:11;;;;;;;;;;;;;;;;;;5073516;28;20007;-86
2022/04/08 06:57:36;;;;;;;;;;;;;;;;;;5064804;28;20589;-86
2022/04/08 07:00:03;;;;;;;;;;;;;;;;;;5057341;28;19921;-87
2022/04/08 07:02:28;;;;;;;;;;;;;;;;;;5077639;28;20456;-86
2022/04/08 07:04:53;;;;;;;;;;;;;;;;;;5077112;28;19920;-86
2022/04/08 07:07:18;;;;;;;;;;;;;;;;;;5096328;28;19912;-87
2022/04/08 07:09:44;;;;;;;;;;;;;;;;;;5065016;28;19920;-86
2022/04/08 07:12:09;;;;;;;;;;;;;;;;;;5078175;28;19951;-87
2022/04/08 07:14:34;;;;;;;;;;;;;;;;;;5076223;28;20081;-86
2022/04/08 07:16:59;;;;;;;;;;;;;;;;;;5076666;28;19908;-87
2022/04/08 07:19:24;;;;;;;;;;;;;;;;;;5076261;28;19999;-86
2022/04/08 07:21:49;;;;;;;;;;;;;;;;;;5094320;28;19999;-87
2022/04/08 07:24:14;;;;;;;;;;;;;;;;;;5078052;28;19919;-87
2022/04/08 07:26:39;;;;;;;;;;;;;;;;;;5068271;28;19912;-87
2022/04/08 07:29:05;;;;;;;;;;;;;;;;;;5068005;28;19956;-86
2022/04/08 07:31:30;;;;;;;;;;;;;;;;;;5087217;28;20587;-86
2022/04/08 07:33:55;;;;;;;;;;;;;;;;;;5065992;28;19916;-87
2022/04/08 07:36:20;;;;;;;;;;;;;;;;;;5082408;28;19973;-88
2022/04/08 07:38:45;;;;;;;;;;;;;;;;;;5069835;28;19947;-87
2022/04/08 07:41:10;;;;;;;;;;;;;;;;;;5081250;28;19940;-86
2022/04/08 07:43:35;;;;;;;;;;;;;;;;;;5072908;28;20007;-88
2022/04/08 07:46:00;;;;;;;;;;;;;;;;;;5077606;28;19999;-87
2022/04/08 07:48:27;;;;;;;;;;;;;;;;;;5095547;28;20319;-87
2022/04/08 07:50:52;;;;;;;;;;;;;;;;;;5077863;28;19919;-86
2022/04/08 07:53:17;;;;;;;;;;;;;;;;;;5067616;28;19913;-85
2022/04/08 07:55:42;;;;;;;;;;;;;;;;;;5078812;28;19912;-86
2022/04/08 07:58:07;;;;;;;;;;;;;;;;;;5077293;28;19908;-86
2022/04/08 08:00:33;;;;;;;;;;;;;;;;;;5086063;28;19918;-86
2022/04/08 08:02:59;;;;;;;;;;;;;;;;;;5074400;28;20314;-87
2022/04/08 08:05:24;;;;;;;;;;;;;;;;;;5073721;28;20525;-87
2022/04/08 08:07:50;;;;;;;;;;;;;;;;;;5068832;28;19912;-87
2022/04/08 08:10:15;;;;;;;;;;;;;;;;;;5068307;28;19912;-88
2022/04/08 08:12:40;;;;;;;;;;;;;;;;;;5078099;28;19916;-87
2022/04/08 08:15:05;;;;;;;;;;;;;;;;;;5059478;28;20390;-87
2022/04/08 08:17:30;;;;;;;;;;;;;;;;;;5096204;27;19919;-87
2022/04/08 08:19:57;;;;;;;;;;;;;;;;;;5084674;28;19948;-87
2022/04/08 08:22:22;;;;;;;;;;;;;;;;;;5094840;28;19931;-87
2022/04/08 08:24:47;;;;;;;;;;;;;;;;;;5069308;28;20351;-88
2022/04/08 08:27:12;;;;;;;;;;;;;;;;;;5086184;28;19909;-87
2022/04/08 08:29:38;;;;;;;;;;;;;;;;;;5074641;28;19924;-86
2022/04/08 08:32:03;;;;;;;;;;;;;;;;;;5069089;28;19920;-87
2022/04/08 08:34:28;;;;;;;;;;;;;;;;;;5083084;28;19984;-87
2022/04/08 08:36:57;;;;;;;;;;;;;;;;;;5075100;28;20429;-87
2022/04/08 08:39:22;;;;;;;;;;;;;;;;;;5069917;28;19920;-87
2022/04/08 08:41:47;;;;;;;;;;;;;;;;;;5078291;28;19966;-87
2022/04/08 08:44:12;;;;;;;;;;;;;;;;;;5078506;28;20366;-87
2022/04/08 08:46:37;;;;;;;;;;;;;;;;;;5097968;28;19916;-85
2022/04/08 08:49:03;;;;;;;;;;;;;;;;;;5076305;28;20299;-87
2022/04/08 08:51:28;;;;;;;;;;;;;;;;;;5073155;28;19919;-86
2022/04/08 08:53:54;;;;;;;;;;;;;;;;;;5076738;28;19916;-86
2022/04/08 08:56:19;;;;;;;;;;;;;;;;;;5085668;28;20395;-86
2022/04/08 08:58:44;;;;;;;;;;;;;;;;;;5070857;28;19916;-87
2022/04/08 09:01:09;;;;;;;;;;;;;;;;;;5069188;28;20536;-87
2022/04/08 09:03:34;;;;;;;;;;;;;;;;;;5090778;28;19916;-86
2022/04/08 09:05:59;;;;;;;;;;;;;;;;;;5074999;28;19912;-87
2022/04/08 09:08:24;;;;;;;;;;;;;;;;;;5072555;28;19958;-87
2022/04/08 09:10:50;;;;;;;;;;;;;;;;;;5100128;27;20007;-86
2022/04/08 09:13:15;;;;;;;;;;;;;;;;;;5082022;28;20007;-87
2022/04/08 09:15:40;;;;;;;;;;;;;;;;;;5099070;28;19965;-86
2022/04/08 09:18:06;;;;;;;;;;;;;;;;;;5081445;28;20405;-86
2022/04/08 09:20:31;;;;;;;;;;;;;;;;;;5084516;28;19965;-87
2022/04/08 09:22:56;;;;;;;;;;;;;;;;;;5075738;28;19955;-86
2022/04/08 09:25:22;;;;;;;;;;;;;;;;;;5065383;28;19998;-87
2022/04/08 09:27:47;;;;;;;;;;;;;;;;;;5073729;28;19919;-86
2022/04/08 09:30:13;;;;;;;;;;;;;;;;;;5072790;28;19926;-86
2022/04/08 09:32:38;;;;;;;;;;;;;;;;;;5075543;28;19908;-86
2022/04/08 09:35:03;;;;;;;;;;;;;;;;;;5075147;28;19923;-85
2022/04/08 09:37:29;;;;;;;;;;;;;;;;;;5081727;28;20253;-87
2022/04/08 09:39:54;;;;;;;;;;;;;;;;;;5075442;28;20015;-87
2022/04/08 09:42:19;;;;;;;;;;;;;;;;;;5089567;28;19916;-87
2022/04/08 09:44:44;;;;;;;;;;;;;;;;;;5081259;28;19938;-87
2022/04/08 09:47:09;;;;;;;;;;;;;;;;;;5068466;28;19949;-85
2022/04/08 09:49:34;;;;;;;;;;;;;;;;;;5084496;28;20071;-88
2022/04/08 09:51:59;;;;;;;;;;;;;;;;;;5102195;28;19982;-86
2022/04/08 09:54:25;;;;;;;;;;;;;;;;;;5074692;28;19908;-86
2022/04/08 09:56:50;;;;;;;;;;;;;;;;;;5073599;28;19913;-86
2022/04/08 09:59:15;;;;;;;;;;;;;;;;;;5073875;28;19939;-86
2022/04/08 10:01:40;;;;;;;;;;;;;;;;;;5104669;28;19920;-86
2022/04/08 10:04:05;;;;;;;;;;;;;;;;;;5075382;28;20002;-86
2022/04/08 10:06:31;;;;;;;;;;;;;;;;;;5073615;28;19912;-84
2022/04/08 10:08:56;;;;;;;;;;;;;;;;;;5080886;28;20080;-85
2022/04/08 10:11:21;;;;;;;;;;;;;;;;;;5088288;28;19912;-85
2022/04/08 10:13:46;;;;;;;;;;;;;;;;;;5092548;28;19925;-83
2022/04/08 10:16:11;;;;;;;;;;;;;;;;;;5074111;28;19917;-84
2022/04/08 10:18:36;;;;;;;;;;;;;;;;;;5085800;28;20274;-84
2022/04/08 10:21:01;;;;;;;;;;;;;;;;;;5073951;28;19973;-84
2022/04/08 10:23:26;;;;;;;;;;;;;;;;;;5074591;28;19955;-84
2022/04/08 10:25:52;;;;;;;;;;;;;;;;;;5072433;28;19912;-84
2022/04/08 10:28:17;;;;;;;;;;;;;;;;;;5056707;28;19935;-83
2022/04/08 10:30:42;;;;;;;;;;;;;;;;;;5059513;28;20395;-84
2022/04/08 10:33:07;;;;;;;;;;;;;;;;;;5074382;28;19919;-84
2022/04/08 10:35:32;;;;;;;;;;;;;;;;;;5075118;28;19908;-84
2022/04/08 10:37:57;;;;;;;;;;;;;;;;;;5060192;28;19913;-84
2022/04/08 10:40:22;;;;;;;;;;;;;;;;;;5076805;28;20563;-83
2022/04/08 10:42:50;;;;;;;;;;;;;;;;;;5074497;28;19911;-83
2022/04/08 10:45:15;;;;;;;;;;;;;;;;;;5085357;28;20417;-84
2022/04/08 10:47:40;;;;;;;;;;;;;;;;;;5079317;28;19952;-83
2022/04/08 10:50:07;;;;;;;;;;;;;;;;;;5075106;28;19964;-84
2022/04/08 10:52:32;;;;;;;;;;;;;;;;;;5074930;28;19961;-83
2022/04/08 10:54:57;;;;;;;;;;;;;;;;;;5073977;28;19920;-85
2022/04/08 10:57:22;;;;;;;;;;;;;;;;;;5063927;28;19912;-86
2022/04/08 10:59:47;;;;;;;;;;;;;;;;;;5087604;28;19912;-86
2022/04/08 11:02:13;;;;;;;;;;;;;;;;;;5075314;28;19912;-86
2022/04/08 11:04:38;;;;;;;;;;;;;;;;;;5077625;28;19913;-86
2022/04/08 11:07:04;;;;;;;;;;;;;;;;;;5077735;28;19912;-87
2022/04/08 11:09:29;;;;;;;;;;;;;;;;;;5079523;28;19923;-86
2022/04/08 11:11:54;;;;;;;;;;;;;;;;;;5078262;28;20295;-86
2022/04/08 11:14:20;;;;;;;;;;;;;;;;;;5081751;28;19912;-87
2022/04/08 11:16:45;;;;;;;;;;;;;;;;;;5067114;28;20398;-87
2022/04/08 11:19:10;;;;;;;;;;;;;;;;;;5095413;28;20378;-88
2022/04/08 11:21:36;;;;;;;;;;;;;;;;;;5090615;28;19952;-87
2022/04/08 11:24:01;;;;;;;;;;;;;;;;;;5084487;28;19916;-88
2022/04/08 11:26:28;;;;;;;;;;;;;;;;;;5069218;28;19939;-87
2022/04/08 11:28:53;;;;;;;;;;;;;;;;;;5076643;28;19969;-87
2022/04/08 11:31:21;;;;;;;;;;;;;;;;;;5080502;28;19916;-89
2022/04/08 11:33:47;;;;;;;;;;;;;;;;;;5102102;28;19916;-86
2022/04/08 11:36:13;;;;;;;;;;;;;;;;;;5084896;28;20003;-88
2022/04/08 11:38:38;;;;;;;;;;;;;;;;;;5086125;28;20478;-88
2022/04/08 11:41:04;;;;;;;;;;;;;;;;;;5079506;28;19911;-86
2022/04/08 11:43:29;;;;;;;;;;;;;;;;;;5077506;28;19912;-87
2022/04/08 11:45:54;;;;;;;;;;;;;;;;;;5082550;28;20294;-87
2022/04/08 11:48:20;;;;;;;;;;;;;;;;;;5076017;28;20257;-86
2022/04/08 11:50:45;;;;;;;;;;;;;;;;;;5092355;28;19919;-86
2022/04/08 11:53:10;;;;;;;;;;;;;;;;;;5072246;28;19913;-87
2022/04/08 11:55:36;;;;;;;;;;;;;;;;;;5105952;28;19912;-87
2022/04/08 11:58:01;;;;;;;;;;;;;;;;;;5095835;28;19918;-86
2022/04/08 12:00:26;;;;;;;;;;;;;;;;;;5075309;28;20006;-88
2022/04/08 12:02:51;;;;;;;;;;;;;;;;;;5075946;28;19912;-86
2022/04/08 12:05:17;;;;;;;;;;;;;;;;;;5105202;28;20266;-87
2022/04/08 12:07:42;;;;;;;;;;;;;;;;;;5094977;28;20371;-87
2022/04/08 12:10:07;;;;;;;;;;;;;;;;;;5078494;28;19916;-86
2022/04/08 12:12:34;;;;;;;;;;;;;;;;;;5100872;28;20026;-87
2022/04/08 12:14:59;;;;;;;;;;;;;;;;;;5102553;28;19912;-87
2022/04/08 12:17:24;;;;;;;;;;;;;;;;;;5069970;28;19923;-87
2022/04/08 12:19:51;;;;;;;;;;;;;;;;;;5068768;28;20397;-87
2022/04/08 12:22:16;;;;;;;;;;;;;;;;;;5090551;28;19915;-87
2022/04/08 12:24:42;;;;;;;;;;;;;;;;;;5076454;28;19939;-88
2022/04/08 12:27:07;;;;;;;;;;;;;;;;;;5082774;28;20390;-89
2022/04/08 12:29:32;;;;;;;;;;;;;;;;;;5073197;28;20394;-86
2022/04/08 12:31:58;;;;;;;;;;;;;;;;;;5087630;28;19912;-87
2022/04/08 12:34:23;;;;;;;;;;;;;;;;;;5077131;28;19916;-87
2022/04/08 12:36:48;;;;;;;;;;;;;;;;;;5074499;28;19915;-87
2022/04/08 12:39:13;;;;;;;;;;;;;;;;;;5098837;28;20420;-87
2022/04/08 12:41:39;;;;;;;;;;;;;;;;;;5076029;28;19916;-86
2022/04/08 12:44:04;;;;;;;;;;;;;;;;;;5093151;28;19916;-87
2022/04/08 12:46:29;;;;;;;;;;;;;;;;;;5075491;28;19916;-87
2022/04/08 12:48:54;;;;;;;;;;;;;;;;;;5076234;28;19920;-88
2022/04/08 12:51:19;;;;;;;;;;;;;;;;;;5075276;28;19908;-88
2022/04/08 12:53:44;;;;;;;;;;;;;;;;;;5092149;28;19912;-87
2022/04/08 12:56:09;;;;;;;;;;;;;;;;;;5075489;28;19961;-87
2022/04/08 12:58:35;;;;;;;;;;;;;;;;;;5093587;28;19946;-87
2022/04/08 13:01:00;;;;;;;;;;;;;;;;;;5088471;28;20196;-87
2022/04/08 13:03:25;;;;;;;;;;;;;;;;;;5084831;28;19909;-86
2022/04/08 13:05:50;;;;;;;;;;;;;;;;;;5074466;28;19915;-87
2022/04/08 13:08:15;;;;;;;;;;;;;;;;;;5076490;28;19912;-86
2022/04/08 13:10:42;;;;;;;;;;;;;;;;;;5074907;28;19912;-87
2022/04/08 13:13:07;;;;;;;;;;;;;;;;;;5075901;28;19915;-87
2022/04/08 13:15:32;;;;;;;;;;;;;;;;;;5074985;28;19912;-88
2022/04/08 13:17:58;;;;;;;;;;;;;;;;;;5098488;28;20578;-88
2022/04/08 13:20:23;;;;;;;;;;;;;;;;;;5098108;28;20002;-87
2022/04/08 13:22:48;;;;;;;;;;;;;;;;;;5075457;28;19912;-87
2022/04/08 13:25:14;;;;;;;;;;;;;;;;;;5073855;28;19920;-87
2022/04/08 13:27:39;;;;;;;;;;;;;;;;;;5074640;28;20613;-87
2022/04/08 13:30:04;;;;;;;;;;;;;;;;;;5079289;28;19920;-86
2022/04/08 13:32:35;;;;;;;;;;;;;;;;;;5074167;28;19966;-86
2022/04/08 13:35:00;;;;;;;;;;;;;;;;;;5066987;28;19912;-86
2022/04/08 13:37:26;;;;;;;;;;;;;;;;;;5092667;28;19968;-88
2022/04/08 13:39:51;;;;;;;;;;;;;;;;;;5113724;28;19946;-88
2022/04/08 13:42:16;;;;;;;;;;;;;;;;;;5086767;28;19912;-87
2022/04/08 13:44:41;;;;;;;;;;;;;;;;;;5095095;28;19912;-88
2022/04/08 13:47:07;;;;;;;;;;;;;;;;;;5068628;28;19917;-85
2022/04/08 13:49:32;;;;;;;;;;;;;;;;;;5069170;28;20003;-87
2022/04/08 13:51:57;;;;;;;;;;;;;;;;;;5075583;28;19908;-88
2022/04/08 13:54:22;;;;;;;;;;;;;;;;;;5097688;28;19928;-87
2022/04/08 13:56:47;;;;;;;;;;;;;;;;;;5076495;28;19916;-88
2022/04/08 13:59:12;;;;;;;;;;;;;;;;;;5082139;28;19912;-88
2022/04/08 14:01:37;;;;;;;;;;;;;;;;;;5083315;28;19912;-89
2022/04/08 14:04:02;;;;;;;;;;;;;;;;;;5089017;28;20363;-87
2022/04/08 14:06:27;;;;;;;;;;;;;;;;;;5076279;28;19912;-88
2022/04/08 14:08:52;;;;;;;;;;;;;;;;;;5075723;28;19920;-88
2022/04/08 14:11:18;;;;;;;;;;;;;;;;;;5069744;28;19912;-88
2022/04/08 14:13:43;;;;;;;;;;;;;;;;;;5081422;28;19978;-86
2022/04/08 14:16:08;;;;;;;;;;;;;;;;;;5080719;28;20407;-85
2022/04/08 14:18:33;;;;;;;;;;;;;;;;;;5077275;28;19970;-87
2022/04/08 14:20:58;;;;;;;;;;;;;;;;;;5065379;28;19937;-87
2022/04/08 14:23:26;;;;;;;;;;;;;;;;;;5090903;28;20382;-88
2022/04/08 14:25:52;;;;;;;;;;;;;;;;;;5073125;28;19912;-86
2022/04/08 14:28:18;;;;;;;;;;;;;;;;;;5090893;28;19919;-89
2022/04/08 14:30:43;;;;;;;;;;;;;;;;;;5072559;28;19956;-86
2022/04/08 14:33:08;;;;;;;;;;;;;;;;;;5090641;28;20347;-87
2022/04/08 14:35:34;;;;;;;;;;;;;;;;;;5073158;28;20318;-87
2022/04/08 14:37:59;;;;;;;;;;;;;;;;;;5093828;28;20011;-87
2022/04/08 14:40:24;;;;;;;;;;;;;;;;;;5079449;28;19918;-88
2022/04/08 14:42:49;;;;;;;;;;;;;;;;;;5095579;28;19912;-88
2022/04/08 14:45:14;;;;;;;;;;;;;;;;;;5077384;28;19920;-87
2022/04/08 14:47:39;;;;;;;;;;;;;;;;;;5076478;28;20410;-88
2022/04/08 14:50:05;;;;;;;;;;;;;;;;;;5083474;28;19920;-88
2022/04/08 14:52:30;;;;;;;;;;;;;;;;;;5082515;28;19976;-88
2022/04/08 14:54:55;;;;;;;;;;;;;;;;;;5090923;28;20342;-88
2022/04/08 14:57:20;;;;;;;;;;;;;;;;;;5080747;28;19912;-86
2022/04/08 14:59:46;;;;;;;;;;;;;;;;;;5071515;28;19920;-88
2022/04/08 15:02:14;;;;;;;;;;;;;;;;;;5092641;28;19912;-88
2022/04/08 15:04:39;;;;;;;;;;;;;;;;;;5078840;28;20383;-88
2022/04/08 15:07:04;;;;;;;;;;;;;;;;;;5073217;28;19916;-89
2022/04/08 15:09:30;;;;;;;;;;;;;;;;;;5078366;28;19916;-87
2022/04/08 15:11:55;;;;;;;;;;;;;;;;;;5078832;28;20373;-87
2022/04/08 15:14:20;;;;;;;;;;;;;;;;;;5096191;28;20264;-87
2022/04/08 15:16:45;;;;;;;;;;;;;;;;;;5086120;28;19934;-87
2022/04/08 15:19:10;;;;;;;;;;;;;;;;;;5079208;28;19916;-89
2022/04/08 15:21:35;;;;;;;;;;;;;;;;;;5081262;28;20339;-89
2022/04/08 15:24:00;;;;;;;;;;;;;;;;;;5079069;28;19914;-89
2022/04/08 15:26:27;;;;;;;;;;;;;;;;;;5100211;28;20030;-88
2022/04/08 15:28:52;;;;;;;;;;;;;;;;;;5077505;28;19916;-87
2022/04/08 15:31:20;;;;;;;;;;;;;;;;;;5097033;28;19965;-88
2022/04/08 15:33:48;;;;;;;;;;;;;;;;;;5078480;28;19912;-88
2022/04/08 15:36:13;;;;;;;;;;;;;;;;;;5080604;28;20002;-89
2022/04/08 15:38:38;;;;;;;;;;;;;;;;;;5084380;28;19958;-90
2022/04/08 15:41:03;;;;;;;;;;;;;;;;;;5080491;28;19966;-89
2022/04/08 15:43:28;;;;;;;;;;;;;;;;;;5077829;28;20391;-89
2022/04/08 15:45:53;;;;;;;;;;;;;;;;;;5078151;28;20057;-89
2022/04/08 15:48:18;;;;;;;;;;;;;;;;;;5070469;28;19916;-89
2022/04/08 15:50:44;;;;;;;;;;;;;;;;;;5078056;28;19908;-89
2022/04/08 15:53:09;;;;;;;;;;;;;;;;;;5096526;28;19908;-89
2022/04/08 15:55:34;;;;;;;;;;;;;;;;;;5078177;28;19915;-90
2022/04/08 15:57:59;;;;;;;;;;;;;;;;;;5077968;28;19915;-89
2022/04/08 16:00:24;;;;;;;;;;;;;;;;;;5095608;28;19923;-89
2022/04/08 16:02:49;;;;;;;;;;;;;;;;;;5078234;28;19922;-90
2022/04/08 16:05:14;;;;;;;;;;;;;;;;;;5078076;28;19919;-89
2022/04/08 16:07:39;;;;;;;;;;;;;;;;;;5077486;28;19912;-90
2022/04/08 16:10:04;;;;;;;;;;;;;;;;;;5077820;28;19920;-90
2022/04/08 16:12:30;;;;;;;;;;;;;;;;;;5096090;28;20270;-89
2022/04/08 16:14:55;;;;;;;;;;;;;;;;;;5077661;28;19922;-90
2022/04/08 16:17:20;;;;;;;;;;;;;;;;;;5077781;28;20275;-90
2022/04/08 16:19:45;;;;;;;;;;;;;;;;;;5077037;28;19919;-90
2022/04/08 16:22:10;;;;;;;;;;;;;;;;;;5077327;28;19998;-90
2022/04/08 16:24:35;;;;;;;;;;;;;;;;;;5077179;28;19916;-90
2022/04/08 16:27:00;;;;;;;;;;;;;;;;;;5076211;28;19919;-90
2022/04/08 16:29:25;;;;;;;;;;;;;;;;;;5077122;28;19969;-90
2022/04/08 16:31:53;;;;;;;;;;;;;;;;;;5095502;28;20360;-90